North Aurora, Illinois
Current Conditions -  °F | °C
As of 11:52 PM on Saturday 20 Dec 2014 (Local Time) from KARR Reporting Station
Haze Haze  
Wind Chill: 26°   Ceiling: 2400
Heat Index: 32°   Visibility: 6mi
Dew Point: 27°   Wind: 7mph
Humidity: 82%   Direction: 150°SSE
Pressure: 30.23"   Gusts: NA
Location:  41.81°N, 88.32°W
Report Text: KARR 210552Z AUTO 15006KT 6SM HZ OVC024 00/M03 A3023 RMK AO2 SLP246 T00001028 10006 20000 400061056 57006
Loading
Personal Weather Stations






























Interactive Weather Map New forecast layout! Learn more

10-Day Weather Forecast

Advertisements
Track Severe Weather on mobile